Time;durP1;ratioP1;P1;durP2;ratioP2;P2;SDS_P1;SDS_P2;PMS_P1;PMS_P2;Temp;Humidity;BMP_temperature;BMP_pressure;BME280_temperature;BME280_humidity;BME280_pressure;Samples;Min_cycle;Max_cycle;Signal;HPM_P1;HPM_P2
2023/12/11 00:02:20;;;;;;;10.45;2.10;;;10.30;99.90;;;11.89;100.00;98762.34;5018548;28;20041;-79
2023/12/11 00:04:45;;;;;;;11.88;2.17;;;10.40;99.90;;;11.84;100.00;98769.72;5014439;28;20449;-79
2023/12/11 00:07:11;;;;;;;8.20;2.42;;;10.30;99.90;;;12.29;100.00;98778.25;5018311;28;20064;-79
2023/12/11 00:09:37;;;;;;;13.07;2.15;;;10.30;99.90;;;12.75;100.00;98791.03;5021858;28;20045;-78
2023/12/11 00:12:03;;;;;;;9.15;2.03;;;10.20;99.90;;;12.81;100.00;98792.66;5024523;28;20160;-79
2023/12/11 00:14:28;;;;;;;11.43;2.80;;;10.20;99.90;;;12.71;100.00;98779.00;5028916;28;20033;-78
2023/12/11 00:16:54;;;;;;;12.10;2.38;;;10.10;99.90;;;13.30;100.00;98810.31;5029450;28;20041;-80
2023/12/11 00:19:20;;;;;;;9.77;2.10;;;10.10;99.90;;;11.52;100.00;98801.59;5022721;28;20045;-79
2023/12/11 00:21:46;;;;;;;9.70;2.10;;;10.20;99.90;;;11.47;100.00;98790.66;5028305;28;20088;-79
2023/12/11 00:24:11;;;;;;;11.85;2.03;;;10.20;99.90;;;11.19;100.00;98777.19;5025936;28;20034;-78
2023/12/11 00:26:37;;;;;;;8.18;2.35;;;10.20;99.90;;;11.54;100.00;98802.16;5032797;28;20040;-79
2023/12/11 00:29:03;;;;;;;9.45;2.20;;;10.20;99.90;;;11.58;100.00;98796.97;5032729;28;20622;-79
2023/12/11 00:31:28;;;;;;;11.27;2.10;;;10.20;99.90;;;11.48;100.00;98812.22;5042262;28;20045;-77
2023/12/11 00:33:54;;;;;;;10.32;2.45;;;10.20;99.90;;;11.45;100.00;98801.03;5021348;28;20383;-78
2023/12/11 00:36:20;;;;;;;10.48;2.30;;;10.20;99.90;;;11.22;100.00;98816.78;5030318;28;20037;-78
2023/12/11 00:38:46;;;;;;;10.48;2.55;;;10.20;99.90;;;11.45;100.00;98806.50;5030773;28;20208;-78
2023/12/11 00:41:12;;;;;;;12.50;2.17;;;10.20;99.90;;;11.46;100.00;98819.88;5023518;28;20037;-79
2023/12/11 00:43:37;;;;;;;11.27;2.15;;;10.20;99.90;;;11.42;100.00;98801.56;5031601;28;20030;-79
2023/12/11 00:46:03;;;;;;;12.23;2.33;;;10.10;99.90;;;11.40;100.00;98814.66;5023708;28;20052;-78
2023/12/11 00:48:29;;;;;;;13.65;2.50;;;10.10;99.90;;;11.24;100.00;98806.41;5017319;28;20038;-78
2023/12/11 00:50:55;;;;;;;8.55;2.05;;;10.10;99.90;;;11.39;100.00;98821.19;5023638;28;20041;-78
2023/12/11 00:53:20;;;;;;;14.18;2.25;;;10.10;99.90;;;11.73;100.00;98809.84;5019770;28;20521;-80
2023/12/11 00:55:46;;;;;;;9.93;2.00;;;10.10;99.90;;;11.83;100.00;98839.13;5026993;28;20034;-79
2023/12/11 00:58:12;;;;;;;14.02;3.05;;;10.10;99.90;;;11.72;100.00;98828.13;5030895;28;20495;-79
2023/12/11 01:00:37;;;;;;;10.75;2.00;;;10.10;99.90;;;11.79;100.00;98808.78;5020345;28;20046;-79
2023/12/11 01:03:03;;;;;;;13.82;2.95;;;10.20;99.90;;;11.83;100.00;98828.19;5025911;28;20486;-79
2023/12/11 01:05:29;;;;;;;13.25;2.45;;;10.20;99.90;;;11.57;100.00;98811.72;5026754;28;20045;-79
2023/12/11 01:07:55;;;;;;;17.08;2.95;;;10.20;99.90;;;12.04;100.00;98804.47;5038832;28;20045;-78
2023/12/11 01:10:20;;;;;;;11.35;2.25;;;10.10;99.90;;;11.94;100.00;98843.50;5026330;28;20088;-79
2023/12/11 01:12:46;;;;;;;12.95;2.42;;;10.10;99.90;;;11.90;100.00;98821.34;5034381;28;20092;-78
2023/12/11 01:15:12;;;;;;;15.57;3.72;;;10.10;99.90;;;11.82;100.00;98805.50;5023746;28;20103;-80
2023/12/11 01:17:37;;;;;;;11.77;2.20;;;10.10;99.90;;;11.35;100.00;98859.94;5026472;28;20037;-79
2023/12/11 01:20:03;;;;;;;13.15;2.53;;;10.10;99.90;;;11.40;100.00;98842.78;5016335;28;20029;-79
2023/12/11 01:22:29;;;;;;;9.40;2.08;;;10.00;99.90;;;10.98;100.00;98841.75;5027547;28;20045;-79
2023/12/11 01:24:55;;;;;;;10.45;2.28;;;10.00;99.90;;;11.31;100.00;98849.84;5031162;28;20083;-79
2023/12/11 01:27:21;;;;;;;12.15;2.38;;;9.90;99.90;;;11.43;100.00;98861.34;5031652;28;20037;-79
2023/12/11 01:29:46;;;;;;;9.75;2.38;;;9.90;99.90;;;11.64;100.00;98858.72;5033971;28;20042;-78
2023/12/11 01:32:12;;;;;;;15.55;2.30;;;9.90;99.90;;;11.43;100.00;98876.94;5030020;28;20033;-79
2023/12/11 01:34:38;;;;;;;17.08;2.40;;;9.90;99.90;;;11.63;100.00;98876.19;5024425;28;20034;-79
2023/12/11 01:37:03;;;;;;;10.95;2.42;;;10.00;99.90;;;11.32;100.00;98884.25;5021529;28;20486;-79
2023/12/11 01:39:29;;;;;;;13.07;2.60;;;10.00;99.90;;;11.47;100.00;98880.78;5024308;28;20105;-78
2023/12/11 01:41:55;;;;;;;12.68;2.28;;;10.10;99.90;;;11.45;100.00;98882.94;5030012;28;20029;-79
2023/12/11 01:44:20;;;;;;;16.83;2.38;;;10.00;99.90;;;11.31;100.00;98888.88;5026165;28;20042;-78
2023/12/11 01:46:46;;;;;;;13.07;2.10;;;10.10;99.90;;;11.45;100.00;98888.41;5024058;28;20461;-77
2023/12/11 01:49:13;;;;;;;16.80;2.60;;;10.10;99.90;;;11.57;100.00;98902.66;5015351;28;20056;-78
2023/12/11 01:51:39;;;;;;;16.52;2.58;;;10.20;99.90;;;11.68;100.00;98905.44;5029215;28;20037;-78
2023/12/11 01:54:05;;;;;;;15.90;2.78;;;10.20;99.90;;;11.28;100.00;98899.53;5030904;28;20041;-78
2023/12/11 01:56:30;;;;;;;14.20;3.42;;;10.20;99.90;;;11.42;100.00;98900.69;5031140;28;20029;-78
2023/12/11 01:58:57;;;;;;;11.50;2.50;;;10.30;99.90;;;11.27;100.00;98909.59;5025966;28;20489;-78
2023/12/11 02:01:25;;;;;;;17.80;2.70;;;10.30;99.90;;;11.58;100.00;98925.34;5030675;28;20049;-78
2023/12/11 02:03:51;;;;;;;13.75;2.35;;;10.30;99.90;;;11.85;100.00;98910.72;5025387;28;20034;-78
2023/12/11 02:06:17;;;;;;;15.05;2.50;;;10.30;99.90;;;11.77;100.00;98920.22;4999773;28;20034;-77
2023/12/11 02:08:45;;;;;;;16.40;2.65;;;10.30;99.90;;;11.68;100.00;98898.06;5023754;28;20103;-78
2023/12/11 02:11:12;;;;;;;12.02;2.75;;;10.30;99.90;;;11.66;100.00;98914.69;5026140;28;20485;-79
2023/12/11 02:13:40;;;;;;;17.02;2.90;;;10.20;99.90;;;11.54;100.00;98908.66;5013541;28;20037;-79
2023/12/11 02:16:06;;;;;;;16.55;2.95;;;10.20;99.90;;;11.54;100.00;98925.03;5019744;28;20381;-79
2023/12/11 02:18:32;;;;;;;22.05;2.85;;;10.10;99.90;;;11.60;100.00;98923.97;5023623;28;20086;-79
2023/12/11 02:20:57;;;;;;;18.10;3.42;;;10.20;99.90;;;11.63;100.00;98912.50;5029175;28;20804;-79
2023/12/11 02:23:58;;;;;;;17.70;3.25;;;10.10;99.90;;;11.61;100.00;98916.63;5021679;28;20469;-79
2023/12/11 02:26:25;;;;;;;15.65;2.85;;;10.20;99.90;;;11.25;100.00;98930.06;5014012;28;20053;-79
2023/12/11 02:28:50;;;;;;;15.45;2.80;;;10.20;99.90;;;11.26;100.00;98934.41;5023852;28;20443;-78
2023/12/11 02:31:16;;;;;;;19.02;3.17;;;10.20;99.90;;;11.42;100.00;98914.31;5028282;28;20064;-78
2023/12/11 02:33:42;;;;;;;17.95;2.55;;;10.10;99.90;;;11.44;100.00;98930.47;5022162;28;20465;-79
2023/12/11 02:36:08;;;;;;;21.10;3.47;;;10.10;99.90;;;11.31;100.00;98932.56;5029953;28;20045;-79
2023/12/11 02:38:34;;;;;;;25.52;4.15;;;10.10;99.90;;;11.35;100.00;98928.22;5014601;28;20112;-78
2023/12/11 02:41:00;;;;;;;14.82;2.90;;;10.10;99.90;;;11.39;100.00;98933.13;5022801;28;20574;-79
2023/12/11 02:43:25;;;;;;;24.13;3.15;;;10.00;99.90;;;11.22;100.00;98936.88;5028231;28;20038;-79
2023/12/11 02:45:51;;;;;;;25.30;3.58;;;9.90;99.90;;;11.42;100.00;98924.44;5017367;28;20022;-79
2023/12/11 02:48:18;;;;;;;18.70;2.50;;;9.90;99.90;;;11.31;100.00;98938.00;5023132;28;20470;-78
2023/12/11 02:50:44;;;;;;;21.95;3.60;;;10.00;99.90;;;11.33;100.00;98938.56;5029198;28;20041;-79
2023/12/11 02:53:09;;;;;;;16.63;3.90;;;10.10;99.90;;;11.44;100.00;98920.34;5023369;28;20033;-79
2023/12/11 02:55:35;;;;;;;15.98;3.00;;;10.00;99.90;;;11.41;100.00;98922.81;5040896;28;20034;-79
2023/12/11 02:58:03;;;;;;;17.67;2.90;;;10.10;99.90;;;11.37;100.00;98926.03;5012133;28;20370;-79
2023/12/11 03:00:30;;;;;;;15.60;3.45;;;10.10;99.90;;;11.36;100.00;98921.66;5023366;28;20046;-81
2023/12/11 03:02:57;;;;;;;18.42;3.25;;;10.00;99.90;;;11.40;100.00;98921.13;5028228;28;20065;-78
2023/12/11 03:05:23;;;;;;;19.40;3.65;;;10.00;99.90;;;11.37;100.00;98914.31;5028540;28;20041;-79
2023/12/11 03:07:49;;;;;;;21.25;3.38;;;9.90;99.90;;;11.55;100.00;98913.03;5016718;28;20083;-79
2023/12/11 03:10:15;;;;;;;24.45;3.33;;;9.80;99.90;;;11.70;100.00;98919.66;5021647;28;20042;-78
2023/12/11 03:12:41;;;;;;;19.17;3.10;;;9.70;99.90;;;11.15;100.00;98909.00;5029442;28;20044;-79
2023/12/11 03:15:08;;;;;;;19.90;4.07;;;9.70;99.90;;;11.07;100.00;98926.69;5020631;28;20045;-79
2023/12/11 03:17:34;;;;;;;19.27;3.67;;;9.60;99.90;;;11.08;100.00;98915.47;5014352;28;20052;-79
2023/12/11 03:20:00;;;;;;;17.00;2.88;;;9.60;99.90;;;10.88;100.00;98910.72;5030933;28;20450;-79
2023/12/11 03:22:26;;;;;;;20.70;3.30;;;9.60;99.90;;;11.12;100.00;98906.75;5021487;28;20041;-78
2023/12/11 03:24:53;;;;;;;18.48;3.80;;;9.60;99.90;;;10.94;100.00;98922.50;5027098;28;20108;-79
2023/12/11 03:27:21;;;;;;;18.00;4.18;;;9.60;99.90;;;11.08;100.00;98909.22;5016803;28;20050;-79
2023/12/11 03:29:48;;;;;;;16.50;2.90;;;9.70;99.90;;;11.03;100.00;98909.19;5028982;28;20470;-79
2023/12/11 03:32:14;;;;;;;20.92;3.70;;;9.70;99.90;;;10.98;100.00;98907.25;5019823;28;20034;-79
2023/12/11 03:34:40;;;;;;;14.35;3.00;;;9.80;99.90;;;10.89;100.00;98904.16;5022587;28;20038;-79
2023/12/11 03:37:06;;;;;;;19.80;3.67;;;9.70;99.90;;;10.75;100.00;98897.53;5019317;28;20034;-78
2023/12/11 03:39:32;;;;;;;21.67;3.50;;;9.70;99.90;;;10.96;100.00;98914.88;5027081;28;20098;-79
2023/12/11 03:41:58;;;;;;;17.27;3.67;;;9.80;99.90;;;11.02;100.00;98916.53;5026836;28;20061;-79
2023/12/11 03:44:24;;;;;;;20.92;3.60;;;9.80;99.90;;;10.99;100.00;98888.94;5019295;28;20038;-78
2023/12/11 03:46:50;;;;;;;21.38;3.40;;;9.80;99.90;;;11.03;100.00;98909.19;5024405;28;20401;-79
2023/12/11 03:49:16;;;;;;;19.00;3.45;;;9.80;99.90;;;10.93;100.00;98905.28;5020732;28;20037;-79
2023/12/11 03:51:45;;;;;;;16.70;3.50;;;9.80;99.90;;;10.98;100.00;98912.69;5028661;28;20033;-79
2023/12/11 03:54:12;;;;;;;19.13;3.35;;;9.80;99.90;;;10.93;100.00;98909.94;5020812;28;20536;-79
2023/12/11 03:56:39;;;;;;;17.85;3.28;;;9.80;99.90;;;10.97;100.00;98894.69;5019479;28;20029;-78
2023/12/11 03:59:05;;;;;;;22.70;3.70;;;9.70;99.90;;;10.93;100.00;98894.38;5020437;28;20025;-78
2023/12/11 04:01:31;;;;;;;19.60;4.53;;;9.70;99.90;;;11.01;100.00;98895.78;5015952;28;20049;-78
2023/12/11 04:03:59;;;;;;;24.23;4.50;;;9.70;99.90;;;10.91;100.00;98907.47;5020562;28;20081;-79
2023/12/11 04:06:24;;;;;;;19.38;3.55;;;9.70;99.90;;;10.71;100.00;98885.47;5029176;28;20092;-80
2023/12/11 04:08:50;;;;;;;20.77;3.63;;;9.80;99.90;;;10.86;100.00;98901.97;5028765;28;20436;-78
2023/12/11 04:11:16;;;;;;;18.13;3.42;;;9.80;99.90;;;10.91;100.00;98896.53;5034877;28;20405;-79
2023/12/11 04:13:43;;;;;;;20.80;3.80;;;9.80;99.90;;;10.77;100.00;98900.81;5021296;28;20061;-79
2023/12/11 04:16:09;;;;;;;15.77;3.95;;;9.70;99.90;;;10.83;100.00;98901.66;5027676;28;20095;-78
2023/12/11 04:18:36;;;;;;;19.95;3.97;;;9.70;99.90;;;10.94;100.00;98900.66;5028085;28;20033;-79
2023/12/11 04:21:02;;;;;;;20.10;4.13;;;9.70;99.90;;;10.76;100.00;98891.78;5023318;28;20068;-79
2023/12/11 04:23:28;;;;;;;17.15;4.18;;;9.70;99.90;;;10.88;100.00;98899.00;5019534;28;20543;-79
2023/12/11 04:25:58;;;;;;;18.33;3.95;;;9.70;99.90;;;10.82;100.00;98895.41;5032590;28;20041;-79
2023/12/11 04:28:27;;;;;;;18.00;3.70;;;9.70;99.90;;;10.87;100.00;98879.06;5032638;28;20436;-80
2023/12/11 04:30:53;;;;;;;18.92;3.92;;;9.60;99.90;;;10.90;100.00;98891.38;5028863;28;20041;-80
2023/12/11 04:33:19;;;;;;;22.85;4.00;;;9.60;99.90;;;10.86;100.00;98890.22;5031636;28;20046;-79
2023/12/11 04:35:45;;;;;;;23.38;4.00;;;9.60;99.90;;;10.79;100.00;98877.63;5032473;28;20186;-79
2023/12/11 04:38:11;;;;;;;20.00;4.20;;;9.50;99.90;;;10.70;100.00;98872.91;5030948;28;20029;-79
2023/12/11 04:40:37;;;;;;;21.48;4.32;;;9.50;99.90;;;10.64;100.00;98875.63;5021879;28;20501;-80
2023/12/11 04:43:03;;;;;;;20.33;5.15;;;9.40;99.90;;;10.87;100.00;98887.25;5030173;28;20040;-79
2023/12/11 04:45:29;;;;;;;21.63;4.15;;;9.50;99.90;;;10.80;100.00;98883.94;5025604;28;20053;-79
2023/12/11 04:47:55;;;;;;;18.60;4.72;;;9.50;99.90;;;10.75;100.00;98886.63;5031842;28;20033;-80
2023/12/11 04:50:21;;;;;;;20.65;4.32;;;9.40;99.90;;;10.72;100.00;98876.22;5026076;28;20045;-80
2023/12/11 04:52:47;;;;;;;25.00;4.55;;;9.40;99.90;;;10.82;100.00;98876.31;5025965;28;20034;-79
2023/12/11 04:55:13;;;;;;;21.92;4.43;;;9.40;99.90;;;10.56;100.00;98858.91;5021232;28;20046;-79
2023/12/11 04:57:38;;;;;;;23.10;4.55;;;9.40;99.90;;;10.65;100.00;98868.28;5028268;28;20041;-79
2023/12/11 05:00:05;;;;;;;30.02;4.75;;;9.30;99.90;;;10.74;100.00;98868.59;5024722;28;20060;-79
2023/12/11 05:02:31;;;;;;;21.40;4.15;;;9.30;99.90;;;10.71;100.00;98872.66;5026708;28;20048;-77
2023/12/11 05:04:57;;;;;;;21.27;4.47;;;9.30;99.90;;;10.54;100.00;98871.97;5028467;28;20096;-79
2023/12/11 05:07:22;;;;;;;21.52;4.72;;;9.40;99.90;;;10.64;100.00;98874.81;5024025;28;20033;-80
2023/12/11 05:09:49;;;;;;;27.02;4.50;;;9.30;99.90;;;10.57;100.00;98874.19;5021746;28;21072;-79
2023/12/11 05:12:14;;;;;;;28.15;5.55;;;9.20;99.90;;;10.45;100.00;98872.47;5015613;28;20061;-79
2023/12/11 05:14:40;;;;;;;20.35;4.28;;;9.20;99.90;;;10.48;100.00;98871.13;5031816;28;20037;-79
2023/12/11 05:17:06;;;;;;;22.58;4.30;;;9.20;99.90;;;10.42;100.00;98862.09;5020853;28;20138;-80
2023/12/11 05:19:32;;;;;;;20.17;4.30;;;9.20;99.90;;;10.40;100.00;98858.78;5024835;28;20112;-81
2023/12/11 05:21:58;;;;;;;21.08;4.05;;;9.10;99.90;;;10.18;100.00;98843.31;5030666;28;20396;-79
2023/12/11 05:24:25;;;;;;;21.83;4.30;;;9.00;99.90;;;10.25;100.00;98864.91;5032356;28;20041;-79
2023/12/11 05:26:53;;;;;;;19.83;4.10;;;8.90;99.90;;;10.22;100.00;98854.53;5026279;28;20041;-80
2023/12/11 05:29:19;;;;;;;;;;;9.00;99.90;;;10.21;100.00;98850.97;5021730;28;20038;-79
2023/12/11 05:31:44;;;;;;;19.13;3.97;;;9.00;99.90;;;10.38;100.00;98844.56;5025346;28;19940;-79
2023/12/11 05:34:10;;;;;;;19.75;4.18;;;9.00;99.90;;;10.31;100.00;98844.78;5023765;28;20064;-79
2023/12/11 05:36:36;;;;;;;22.40;3.90;;;8.90;99.90;;;10.42;100.00;98829.38;5017165;28;20104;-79
2023/12/11 05:39:02;;;;;;;22.60;4.50;;;8.90;99.90;;;10.40;100.00;98845.16;5034339;28;20060;-77
2023/12/11 05:41:27;;;;;;;23.30;4.30;;;9.00;99.90;;;10.42;100.00;98834.81;5015150;28;20366;-80
2023/12/11 05:43:53;;;;;;;27.25;4.78;;;8.90;99.90;;;10.30;100.00;98825.94;5023121;28;20064;-85
2023/12/11 05:46:19;;;;;;;21.13;3.92;;;8.90;99.90;;;10.28;100.00;98836.28;5029624;28;20103;-81
2023/12/11 05:48:45;;;;;;;17.85;3.95;;;8.90;99.90;;;10.25;100.00;98839.53;5042040;28;20033;-80
2023/12/11 05:51:10;;;;;;;23.00;3.78;;;9.00;99.90;;;10.28;100.00;98809.03;5024699;28;20051;-80
2023/12/11 05:53:36;;;;;;;23.15;3.63;;;8.90;99.90;;;10.20;100.00;98824.78;5022980;28;20091;-81
2023/12/11 05:56:02;;;;;;;20.60;3.92;;;8.90;99.90;;;10.20;100.00;98824.78;5026235;28;20052;-80
2023/12/11 05:58:27;;;;;;;20.02;4.05;;;8.90;99.90;;;10.38;100.00;98816.47;5025640;28;20041;-81
2023/12/11 06:00:53;;;;;;;25.90;3.80;;;9.00;99.90;;;10.28;100.00;98822.66;5022795;28;20049;-82
2023/12/11 06:03:19;;;;;;;22.90;4.40;;;9.00;99.90;;;10.49;100.00;98840.88;5012955;28;20021;-81
2023/12/11 06:05:44;;;;;;;20.75;4.55;;;9.00;99.90;;;10.42;100.00;98831.25;5026165;28;20489;-80
2023/12/11 06:08:10;;;;;;;23.30;3.67;;;9.00;99.90;;;10.38;100.00;98825.50;5017357;28;20091;-81
2023/12/11 06:10:36;;;;;;;21.70;3.55;;;9.00;99.90;;;10.43;100.00;98830.19;5018301;28;20082;-80
2023/12/11 06:13:02;;;;;;;24.42;3.65;;;9.00;99.90;;;10.55;100.00;98832.72;5025015;28;20037;-81
2023/12/11 06:15:28;;;;;;;24.08;3.40;;;9.10;99.90;;;10.54;100.00;98833.81;5025052;28;20038;-80
2023/12/11 06:17:54;;;;;;;23.10;4.13;;;9.30;99.90;;;10.71;100.00;98848.13;5027604;28;20041;-81
2023/12/11 06:20:20;;;;;;;16.70;3.53;;;9.30;99.90;;;10.71;100.00;98848.13;5011653;28;20037;-82
2023/12/11 06:22:48;;;;;;;26.67;3.53;;;9.40;99.90;;;10.69;100.00;98844.00;5024596;28;20041;-80
2023/12/11 06:25:14;;;;;;;22.92;3.78;;;9.30;99.90;;;10.47;100.00;98845.75;5023944;28;20088;-79
2023/12/11 06:27:40;;;;;;;19.30;3.03;;;9.20;99.90;;;10.36;100.00;98830.38;5038035;28;20049;-79
2023/12/11 06:30:07;;;;;;;17.23;3.53;;;9.00;99.90;;;10.26;100.00;98831.13;5030710;28;20037;-79
2023/12/11 06:32:34;;;;;;;26.90;3.33;;;8.90;99.90;;;10.10;100.00;98827.44;5038778;28;20064;-80
2023/12/11 06:34:59;;;;;;;26.85;4.93;;;8.80;99.90;;;10.15;100.00;98824.75;5018923;28;20042;-79
2023/12/11 06:37:25;;;;;;;27.23;3.50;;;8.70;99.90;;;10.11;100.00;98823.63;5021378;28;20255;-81
2023/12/11 06:39:51;;;;;;;28.73;3.92;;;8.70;99.90;;;10.11;100.00;98818.19;5011328;28;20061;-79
2023/12/11 06:42:17;;;;;;;32.47;4.13;;;8.60;99.90;;;10.04;100.00;98823.00;5024768;28;20055;-82
2023/12/11 06:44:42;;;;;;;21.40;4.22;;;8.60;99.90;;;10.08;100.00;98827.69;5023907;28;20033;-80
2023/12/11 06:47:09;;;;;;;22.52;3.90;;;8.60;99.90;;;10.08;100.00;98814.06;5018317;28;20045;-81
2023/12/11 06:49:36;;;;;;;33.70;4.38;;;8.60;99.90;;;10.02;100.00;98819.72;5029478;28;20041;-80
2023/12/11 06:52:03;;;;;;;31.27;4.22;;;8.50;99.90;;;9.92;100.00;98820.44;5018871;28;20034;-80
2023/12/11 06:54:28;;;;;;;28.00;3.38;;;8.50;99.90;;;9.91;100.00;98813.34;5027249;28;20038;-80
2023/12/11 06:56:55;;;;;;;30.13;3.72;;;8.50;99.90;;;9.86;100.00;98819.56;5030317;28;20033;-80
2023/12/11 06:59:22;;;;;;;24.27;3.63;;;8.40;99.90;;;9.75;100.00;98826.81;5039304;28;20038;-81
2023/12/11 07:01:48;;;;;;;27.52;4.00;;;8.40;99.90;;;9.74;100.00;98816.16;5017507;28;20065;-80
2023/12/11 07:04:13;;;;;;;22.48;3.75;;;8.40;99.90;;;9.83;100.00;98832.88;5021667;28;20066;-81
2023/12/11 07:06:39;;;;;;;31.08;3.50;;;8.40;99.90;;;9.75;100.00;98839.59;5032537;28;20049;-81
2023/12/11 07:09:05;;;;;;;24.90;3.20;;;8.40;99.90;;;9.71;100.00;98824.84;5016567;28;20064;-81
2023/12/11 07:11:30;;;;;;;25.27;3.20;;;8.40;99.90;;;9.72;100.00;98840.09;5027666;28;20033;-81
2023/12/11 07:13:56;;;;;;;25.00;3.80;;;8.40;99.90;;;9.61;100.00;98836.44;5011343;28;20401;-81
2023/12/11 07:16:25;;;;;;;24.83;3.63;;;8.40;99.90;;;9.50;100.00;98822.72;5034972;28;20045;-80
2023/12/11 07:18:51;;;;;;;24.05;3.80;;;8.40;99.90;;;9.61;100.00;98820.94;5023182;28;20545;-81
2023/12/11 07:21:17;;;;;;;27.25;4.00;;;8.30;99.90;;;9.56;100.00;98818.16;5026331;28;20040;-81
2023/12/11 07:23:43;;;;;;;18.00;3.75;;;8.30;99.90;;;9.56;100.00;98811.88;5027862;28;20029;-80
2023/12/11 07:26:10;;;;;;;22.05;3.85;;;8.30;99.90;;;9.58;100.00;98826.06;5017406;28;20120;-81
2023/12/11 07:28:39;;;;;;;25.27;3.58;;;8.30;99.90;;;9.46;100.00;98815.31;5011475;28;20038;-81
2023/12/11 07:31:06;;;;;;;20.70;3.45;;;8.30;99.90;;;9.57;100.00;98822.53;5023037;28;20045;-80
2023/12/11 07:33:32;;;;;;;22.00;3.15;;;8.30;99.90;;;9.45;100.00;98839.00;5024871;28;20081;-82
2023/12/11 07:35:58;;;;;;;31.65;4.32;;;8.40;99.90;;;9.55;100.00;98827.41;5024480;28;20125;-83
2023/12/11 07:38:25;;;;;;;24.83;4.88;;;8.40;99.90;;;9.56;100.00;98823.63;5017957;28;20456;-83
2023/12/11 07:40:54;;;;;;;24.73;4.00;;;8.30;99.90;;;9.51;100.00;98815.38;5025130;28;20029;-83
2023/12/11 07:43:20;;;;;;;18.15;3.72;;;8.30;99.90;;;9.67;100.00;98818.28;5026047;28;20038;-83
2023/12/11 07:45:46;;;;;;;17.55;3.55;;;8.30;99.90;;;9.57;100.00;98819.81;5016772;28;20095;-83
2023/12/11 07:48:11;;;;;;;17.60;3.47;;;8.30;99.90;;;9.44;100.00;98820.19;4995236;28;20034;-82
2023/12/11 07:50:37;;;;;;;21.25;3.38;;;8.30;99.90;;;9.60;100.00;98808.41;5022990;28;20435;-84
2023/12/11 07:53:03;;;;;;;18.80;3.67;;;8.30;99.90;;;9.70;100.00;98804.97;5023646;28;20385;-82
2023/12/11 07:55:29;;;;;;;16.15;3.95;;;8.20;99.90;;;9.81;100.00;98805.88;5025307;28;20037;-83
2023/12/11 07:57:55;;;;;;;27.00;4.78;;;8.30;99.90;;;9.74;100.00;98813.44;5028372;28;20033;-84
2023/12/11 08:00:21;;;;;;;28.17;3.40;;;8.30;99.90;;;9.84;100.00;98824.47;5042407;28;20080;-84
2023/12/11 08:02:47;;;;;;;28.05;4.10;;;8.30;99.90;;;9.67;100.00;98808.19;5019987;28;20040;-82
2023/12/11 08:05:13;;;;;;;24.15;3.58;;;8.40;99.90;;;9.79;100.00;98816.22;5030565;28;20037;-82
2023/12/11 08:07:39;;;;;;;21.45;3.95;;;8.40;99.90;;;9.72;100.00;98805.53;5025412;28;20034;-83
2023/12/11 08:10:06;;;;;;;26.05;3.97;;;8.40;99.90;;;9.87;100.00;98818.50;5026704;28;20053;-87
2023/12/11 08:12:32;;;;;;;24.33;4.88;;;8.40;99.90;;;9.83;100.00;98811.91;5023372;28;20125;-88
2023/12/11 08:14:58;;;;;;;20.92;3.22;;;8.40;99.90;;;10.00;100.00;98810.97;5052527;28;20068;-87
2023/12/11 08:17:24;;;;;;;27.70;4.15;;;8.40;99.90;;;10.00;100.00;98819.16;5021644;28;20033;-82
2023/12/11 08:19:51;;;;;;;17.50;3.10;;;8.40;99.90;;;10.00;100.00;98813.69;5016711;28;20040;-84
2023/12/11 08:22:17;;;;;;;20.42;3.70;;;8.40;99.90;;;9.97;100.00;98833.28;5020716;28;20041;-84
2023/12/11 08:24:43;;;;;;;23.50;3.65;;;8.40;99.90;;;9.80;100.00;98823.31;5013062;28;20084;-82
2023/12/11 08:27:09;;;;;;;19.42;3.17;;;8.50;99.90;;;9.90;100.00;98831.59;5042357;28;20449;-83
2023/12/11 08:29:36;;;;;;;18.58;3.25;;;8.50;99.90;;;9.91;100.00;98814.16;5018347;28;20034;-84
2023/12/11 08:32:03;;;;;;;19.17;4.00;;;8.60;99.90;;;9.80;100.00;98817.84;5017943;28;20045;-83
2023/12/11 08:34:29;;;;;;;19.63;3.28;;;8.60;99.90;;;9.91;100.00;98803.28;5025757;28;20021;-82
2023/12/11 08:36:55;;;;;;;14.57;2.75;;;8.60;99.90;;;9.89;100.00;98819.06;5029053;28;20041;-82
2023/12/11 08:39:21;;;;;;;17.08;3.45;;;8.60;99.90;;;9.95;100.00;98821.81;5027206;28;20033;-84
2023/12/11 08:41:48;;;;;;;20.23;2.90;;;8.60;99.90;;;9.89;100.00;98815.50;5030991;28;20113;-84
2023/12/11 08:44:15;;;;;;;18.10;3.30;;;8.50;99.90;;;10.04;100.00;98814.81;5044482;28;20116;-82
2023/12/11 08:46:41;;;;;;;18.45;3.35;;;8.50;99.90;;;9.91;100.00;98797.81;5031454;28;20033;-83
2023/12/11 08:49:07;;;;;;;20.50;3.25;;;8.50;99.90;;;9.98;100.00;98807.69;5031124;28;20055;-83
2023/12/11 08:51:33;;;;;;;15.07;2.92;;;8.50;99.90;;;9.96;100.00;98802.50;5032435;28;20033;-83
2023/12/11 08:53:59;;;;;;;15.68;3.17;;;8.60;99.90;;;9.80;100.00;98809.69;5026612;28;20034;-82
2023/12/11 08:56:25;;;;;;;16.70;3.42;;;8.70;99.90;;;10.01;100.00;98818.06;5023115;28;20466;-82
2023/12/11 08:58:51;;;;;;;14.30;2.72;;;8.70;99.90;;;10.08;100.00;98813.25;5025790;28;20449;-84
2023/12/11 09:01:18;;;;;;;13.73;2.67;;;8.80;99.90;;;10.02;100.00;98811.53;5039996;28;20068;-84
2023/12/11 09:03:45;;;;;;;11.73;2.90;;;8.90;99.90;;;10.11;100.00;98812.72;5024377;28;20096;-84
2023/12/11 09:06:13;;;;;;;12.35;2.50;;;9.00;99.90;;;9.98;100.00;98802.25;5029672;28;20038;-84
2023/12/11 09:08:39;;;;;;;14.15;2.58;;;9.00;99.90;;;10.30;100.00;98804.16;5022895;28;20470;-85
2023/12/11 09:11:05;;;;;;;10.18;2.78;;;9.00;99.90;;;10.12;100.00;98761.75;5025811;28;20037;-84
2023/12/11 09:13:31;;;;;;;13.57;2.72;;;9.10;99.90;;;10.45;100.00;98822.56;5025069;28;20030;-82
2023/12/11 09:15:57;;;;;;;10.75;2.50;;;9.10;99.90;;;10.27;100.00;98812.84;5041191;28;20042;-84
2023/12/11 09:18:23;;;;;;;11.02;2.38;;;9.10;99.90;;;10.39;100.00;98810.78;5044483;28;20036;-84
2023/12/11 09:20:49;;;;;;;9.98;2.70;;;9.10;99.90;;;10.37;100.00;98802.03;5034209;28;20535;-84
2023/12/11 09:23:15;;;;;;;12.07;2.88;;;9.10;99.90;;;10.36;100.00;98805.84;5029499;28;20381;-83
2023/12/11 09:25:41;;;;;;;12.50;2.60;;;9.10;99.90;;;10.45;100.00;98808.94;5020296;28;20045;-83
2023/12/11 09:28:07;;;;;;;8.60;2.13;;;9.00;99.90;;;10.36;100.00;98808.59;5014432;28;20512;-83
2023/12/11 09:30:33;;;;;;;16.08;2.50;;;9.10;99.90;;;10.37;100.00;98810.22;5032921;28;20038;-83
2023/12/11 09:32:58;;;;;;;11.90;2.30;;;9.10;99.90;;;10.65;100.00;98800.91;5020747;28;20056;-84
2023/12/11 09:35:24;;;;;;;8.40;2.08;;;9.10;99.90;;;10.57;100.00;98795.94;5031788;28;20180;-83
2023/12/11 09:37:50;;;;;;;8.40;2.20;;;9.20;99.90;;;10.49;100.00;98797.25;5027560;28;20088;-84
2023/12/11 09:40:16;;;;;;;9.95;2.30;;;9.20;99.90;;;10.70;100.00;98816.47;5036965;28;20500;-84
2023/12/11 09:42:43;;;;;;;11.90;2.17;;;9.20;99.90;;;10.58;100.00;98803.03;5027242;28;20029;-85
2023/12/11 09:45:13;;;;;;;11.00;2.90;;;9.20;99.90;;;10.53;100.00;98810.34;5040669;28;20052;-85
2023/12/11 09:47:47;;;;;;;14.77;3.28;;;9.10;99.90;;;10.40;100.00;98808.84;5026838;28;20038;-84
2023/12/11 09:50:13;;;;;;;13.63;3.22;;;9.00;99.90;;;10.12;100.00;98798.03;5031691;28;20041;-83
2023/12/11 09:52:41;;;;;;;10.77;2.47;;;9.00;99.90;;;10.05;100.00;98809.13;5032445;28;20049;-82
2023/12/11 09:55:08;;;;;;;11.68;2.80;;;8.90;99.90;;;9.98;100.00;98803.06;5040747;28;20052;-82
2023/12/11 09:57:36;;;;;;;20.90;3.45;;;8.90;99.90;;;10.04;100.00;98795.75;5044271;28;20045;-81
2023/12/11 10:00:04;;;;;;;14.48;3.35;;;8.90;99.90;;;10.08;100.00;98789.53;5035151;28;20127;-81
2023/12/11 10:02:31;;;;;;;16.25;3.20;;;8.80;99.90;;;9.97;100.00;98795.16;5036504;28;20095;-82
2023/12/11 10:05:10;;;;;;;12.18;3.72;;;8.80;99.90;;;10.10;100.00;98781.13;5029936;28;20052;-82
2023/12/11 10:07:41;;;;;;;18.98;3.92;;;8.70;99.90;;;9.99;100.00;98780.19;5029325;28;20097;-82
2023/12/11 10:10:26;;;;;;;16.20;4.60;;;8.70;99.90;;;9.97;100.00;98766.03;5028374;28;20512;-82